Incident at ST. ANTHONY AIRPORT

Summary

2010-05-28: SPR903, Saab 340A, enroute from St. John?s (CYYT) to St. Anthony (CYAY) carried out a missed approach to Runway 10 due to weather. SPR903 diverted to Lourdes-de-Blanc-Sablon (CYBX). Nil TSB. SPECI CYAY 271849Z AUTO 04020G26KT 3/4SM BR OVC003 04/04 A2972 RMK SLP067 MAX WND 03026KT AT 1849Z.

Details


CADORS Number 2010A0457
Occurrence Type Incident
Reported By NAV CANADA
Occurred At 2010-05-27 - 18:50
Day or Night? Day-time
Fatalities 0
Injuries 0
Aerodrome ID CYAY
Aerodrome Name ST. ANTHONY AIRPORT
Geographic Location Newfoundland and Labrador, Canada, North America, Atlantic Region, St. Anthony (CYAY)
TSB Occurrence Number
TSB Class of Investigation
AOR Number 119422-V1
Reported By NAV CANADA
Categories Undershoot/overshoot,Other
Events



Aircraft Details (1 aircraft)

Type Aeroplane
 Silhouette image of Aeroplane
Canadian Registration
Foreign Registration
Country of Registration Canada
Occurrence Type Incident
Owner PROVINCIAL AIRLINES LIMITED
Operator PROVINCIAL AIRLINES LIMITED (2659) Commercial
Make  Silhouette image of SAAB
SAAB
Model 340A
Year Built
Engine Type Turbo prop
Engine Make
Engine Model
Gear Type Land
Private No
Amateur Built No
Flight Number SPR903
Flight Rule
CARS Subpart
Phase of Flight Approach
Damage No Damage
Fatalities 0
Injuries 0
Events Diversion,Weather - visibility,Overshoot/missed approach

Leave a Comment